Time;durP1;ratioP1;P1;durP2;ratioP2;P2;SDS_P1;SDS_P2;PMS_P1;PMS_P2;Temp;Humidity;BMP_temperature;BMP_pressure;BME280_temperature;BME280_humidity;BME280_pressure;Samples;Min_cycle;Max_cycle;Signal;HPM_P1;HPM_P2
2023/10/14 00:01:38;;;;;;;6.22;3.80;;;24.40;49.30;;;;;;6198825;28;20034;-64
2023/10/14 00:04:39;;;;;;;9.98;4.50;;;24.30;49.40;;;;;;6216339;28;20349;-66
2023/10/14 00:07:40;;;;;;;12.02;4.32;;;24.30;50.00;;;;;;6214820;28;20029;-66
2023/10/14 00:10:40;;;;;;;6.55;3.63;;;24.30;50.10;;;;;;6215838;28;20417;-66
2023/10/14 00:13:49;;;;;;;8.43;3.40;;;24.30;50.10;;;;;;6214757;28;20038;-64
2023/10/14 00:16:51;;;;;;;12.70;4.13;;;24.20;50.30;;;;;;6216008;28;20069;-65
2023/10/14 00:19:55;;;;;;;12.52;4.20;;;24.20;50.60;;;;;;6216265;28;20033;-66
2023/10/14 00:22:56;;;;;;;11.55;4.70;;;24.20;50.70;;;;;;6214659;28;20100;-65
2023/10/14 00:25:57;;;;;;;10.48;3.88;;;24.20;51.30;;;;;;6215396;28;20029;-66
2023/10/14 00:29:16;;;;;;;13.07;3.88;;;24.20;51.20;;;;;;6215634;28;20038;-64
2023/10/14 00:32:17;;;;;;;11.70;4.50;;;24.10;51.60;;;;;;6198092;28;20042;-65
2023/10/14 00:35:19;;;;;;;7.78;3.67;;;24.10;52.10;;;;;;6216148;28;20032;-65
2023/10/14 00:38:20;;;;;;;9.63;3.65;;;24.10;52.30;;;;;;6215878;28;20026;-63
2023/10/14 00:41:22;;;;;;;10.90;4.40;;;24.00;52.20;;;;;;6181995;28;20151;-66
2023/10/14 00:44:24;;;;;;;7.65;4.22;;;24.00;52.40;;;;;;6214852;28;20041;-65
2023/10/14 00:47:25;;;;;;;8.50;3.70;;;24.00;52.50;;;;;;6215972;28;20029;-66
2023/10/14 00:50:33;;;;;;;9.30;4.00;;;24.00;52.50;;;;;;6214074;28;20096;-65
2023/10/14 00:53:37;;;;;;;14.10;4.75;;;24.00;52.50;;;;;;6214564;28;20044;-65
2023/10/14 00:56:42;;;;;;;6.97;3.72;;;24.00;52.80;;;;;;6214432;28;20517;-65
2023/10/14 00:59:48;;;;;;;10.68;3.95;;;24.00;52.90;;;;;;6213811;28;20034;-64
2023/10/14 01:02:51;;;;;;;14.02;4.22;;;24.00;52.90;;;;;;6215407;28;20055;-65
2023/10/14 01:05:56;;;;;;;9.88;4.28;;;24.00;53.00;;;;;;6213744;28;20116;-65
2023/10/14 01:09:10;;;;;;;12.38;4.45;;;24.00;53.00;;;;;;6215308;28;20112;-66
2023/10/14 01:12:37;;;;;;;10.65;4.47;;;24.00;53.00;;;;;;6215771;28;20026;-64
2023/10/14 01:15:43;;;;;;;9.82;4.45;;;24.00;53.00;;;;;;6214149;28;20033;-65
2023/10/14 01:18:47;;;;;;;8.25;4.05;;;24.10;53.10;;;;;;6213285;28;20065;-64
2023/10/14 01:21:51;;;;;;;7.88;3.95;;;24.10;53.00;;;;;;6198195;28;20041;-63
2023/10/14 01:24:52;;;;;;;6.15;3.75;;;24.10;53.10;;;;;;6189545;28;20147;-65
2023/10/14 01:27:57;;;;;;;9.45;4.13;;;24.10;53.10;;;;;;6189582;28;20026;-66
2023/10/14 01:34:35;;;;;;;8.50;3.60;;;24.00;53.40;;;;;;6189054;28;20034;-64
2023/10/14 01:37:37;;;;;;;6.88;3.70;;;24.00;53.40;;;;;;6189463;28;20030;-66
2023/10/14 01:41:04;;;;;;;13.60;4.15;;;24.00;53.60;;;;;;6188544;28;20069;-65
2023/10/14 01:44:03;;;;;;;12.57;3.65;;;24.00;53.60;;;;;;6190310;28;20205;-65
2023/10/14 01:47:04;;;;;;;9.77;3.88;;;24.00;53.70;;;;;;6172893;28;20030;-65
2023/10/14 01:50:05;;;;;;;6.88;3.65;;;24.00;53.60;;;;;;6205800;28;20037;-64
2023/10/14 01:53:13;;;;;;;17.45;4.03;;;24.00;53.50;;;;;;6214649;28;20025;-64
2023/10/14 01:56:14;;;;;;;10.38;3.83;;;24.00;53.60;;;;;;6214781;28;20041;-66
2023/10/14 01:59:16;;;;;;;9.90;3.95;;;24.00;53.70;;;;;;6214354;28;20025;-65
2023/10/14 02:02:20;;;;;;;13.13;4.20;;;24.00;53.80;;;;;;6214562;28;20095;-64
2023/10/14 02:05:25;;;;;;;5.63;3.65;;;23.90;53.80;;;;;;6214713;28;20040;-64
2023/10/14 02:08:26;;;;;;;7.78;3.92;;;23.90;54.00;;;;;;6212822;28;20037;-65
2023/10/14 02:11:33;;;;;;;8.05;4.03;;;23.90;53.90;;;;;;6213888;28;20730;-63
2023/10/14 02:14:34;;;;;;;11.13;4.35;;;24.00;54.00;;;;;;6213218;28;20129;-66
2023/10/14 02:17:35;;;;;;;8.85;4.35;;;24.00;53.90;;;;;;6213185;28;20028;-63
2023/10/14 02:20:38;;;;;;;8.02;3.75;;;23.90;53.90;;;;;;6214324;28;20121;-65
2023/10/14 02:23:49;;;;;;;10.98;4.22;;;24.00;53.90;;;;;;6214434;28;20034;-63
2023/10/14 02:26:51;;;;;;;6.78;4.20;;;23.90;54.10;;;;;;6214274;28;20022;-64
2023/10/14 02:29:54;;;;;;;11.60;4.22;;;23.90;54.30;;;;;;6212247;28;20072;-66
2023/10/14 02:32:57;;;;;;;7.93;4.22;;;23.90;54.30;;;;;;6214494;28;20101;-66
2023/10/14 02:35:59;;;;;;;13.43;4.32;;;23.90;54.40;;;;;;6212712;28;20056;-65
2023/10/14 02:39:00;;;;;;;18.83;4.93;;;23.90;54.50;;;;;;6214082;28;20390;-64
2023/10/14 02:42:09;;;;;;;10.45;4.68;;;23.90;54.60;;;;;;6212458;28;20120;-65
2023/10/14 02:45:12;;;;;;;6.07;3.33;;;23.80;54.70;;;;;;6213852;28;20030;-64
2023/10/14 02:48:18;;;;;;;9.73;4.28;;;23.80;54.80;;;;;;6216167;28;20040;-65
2023/10/14 02:51:35;;;;;;;7.88;3.78;;;23.80;54.80;;;;;;6218185;28;20125;-66
2023/10/14 02:54:41;;;;;;;11.55;4.15;;;23.80;54.90;;;;;;6216532;28;20072;-66
2023/10/14 02:57:45;;;;;;;11.40;4.32;;;23.70;54.90;;;;;;6218334;28;20530;-65
2023/10/14 03:00:49;;;;;;;12.30;4.32;;;23.70;55.10;;;;;;6204778;28;20085;-65
2023/10/14 03:03:51;;;;;;;8.43;4.13;;;23.60;55.10;;;;;;6208808;28;20038;-66
2023/10/14 03:06:55;;;;;;;12.10;4.32;;;23.60;55.30;;;;;;6214409;28;20160;-65
2023/10/14 03:10:34;;;;;;;9.52;4.75;;;23.60;55.40;;;;;;6215940;28;20026;-64
2023/10/14 03:13:41;;;;;;;8.95;4.53;;;23.50;55.50;;;;;;6193934;28;20111;-67
2023/10/14 03:16:44;;;;;;;11.68;3.97;;;23.50;55.50;;;;;;6193556;28;20054;-65
2023/10/14 03:19:45;;;;;;;12.60;4.10;;;23.50;55.40;;;;;;6193326;28;20402;-64
2023/10/14 03:22:46;;;;;;;10.10;4.30;;;23.50;55.50;;;;;;6193226;28;20027;-65
2023/10/14 03:25:49;;;;;;;9.90;3.47;;;23.50;55.60;;;;;;6193133;28;20049;-65
2023/10/14 03:28:50;;;;;;;8.73;3.90;;;23.50;55.60;;;;;;6193800;28;20042;-65
2023/10/14 03:31:52;;;;;;;6.88;3.72;;;23.50;55.60;;;;;;6195560;28;20022;-64
2023/10/14 03:34:53;;;;;;;8.93;4.55;;;23.50;55.50;;;;;;6193091;28;20030;-65
2023/10/14 03:37:56;;;;;;;14.80;4.63;;;23.50;55.40;;;;;;6193088;28;20454;-65
2023/10/14 03:41:03;;;;;;;12.63;4.25;;;23.50;55.40;;;;;;6191398;28;20506;-66
2023/10/14 03:44:09;;;;;;;9.50;4.28;;;23.50;55.40;;;;;;6193040;28;20089;-65
2023/10/14 03:47:16;;;;;;;9.98;3.75;;;23.50;55.30;;;;;;6192988;28;20478;-65
2023/10/14 03:50:24;;;;;;;5.53;3.90;;;23.50;55.40;;;;;;6210331;28;20034;-65
2023/10/14 03:53:25;;;;;;;14.52;4.10;;;23.50;55.50;;;;;;6217150;28;20030;-66
2023/10/14 03:56:27;;;;;;;10.82;4.13;;;23.50;55.60;;;;;;6217277;28;20172;-64
2023/10/14 03:59:33;;;;;;;12.30;4.25;;;23.50;55.80;;;;;;6213907;28;20045;-65
2023/10/14 04:02:35;;;;;;;17.52;5.13;;;23.50;55.70;;;;;;6217064;28;20247;-65
2023/10/14 04:05:37;;;;;;;13.63;4.68;;;23.50;55.70;;;;;;6216530;28;20036;-66
2023/10/14 04:08:50;;;;;;;7.85;4.05;;;23.50;55.80;;;;;;6216122;28;20672;-65
2023/10/14 04:11:54;;;;;;;12.60;4.63;;;23.50;56.50;;;;;;6215889;28;20057;-65
2023/10/14 04:14:55;;;;;;;15.65;4.63;;;23.50;55.80;;;;;;6216265;28;20319;-65
2023/10/14 04:17:57;;;;;;;17.80;4.63;;;23.60;55.70;;;;;;6214795;28;20474;-65
2023/10/14 04:21:19;;;;;;;9.48;4.47;;;23.50;55.70;;;;;;6216387;28;20442;-66
2023/10/14 04:24:35;;;;;;;13.93;4.43;;;23.50;55.70;;;;;;6216648;28;20448;-64
2023/10/14 04:27:45;;;;;;;10.93;4.07;;;23.50;55.70;;;;;;6216279;28;20091;-64
2023/10/14 04:30:46;;;;;;;23.15;4.35;;;23.50;55.60;;;;;;6215829;28;20390;-66
2023/10/14 04:33:52;;;;;;;13.27;4.25;;;23.60;55.70;;;;;;6216515;28;20741;-65
2023/10/14 04:36:54;;;;;;;9.88;3.90;;;23.60;55.70;;;;;;6215965;28;20486;-67
2023/10/14 04:39:58;;;;;;;13.52;4.72;;;23.50;55.70;;;;;;6215624;28;20030;-65
2023/10/14 04:43:06;;;;;;;14.18;5.43;;;23.50;55.80;;;;;;6215769;28;20087;-66
2023/10/14 04:49:14;;;;;;;10.13;4.85;;;23.50;55.90;;;;;;6199486;28;20029;-65
2023/10/14 04:52:18;;;;;;;15.88;5.07;;;23.50;55.90;;;;;;6215570;28;20025;-65
2023/10/14 04:55:25;;;;;;;14.93;4.93;;;23.40;56.00;;;;;;6215380;28;20029;-64
2023/10/14 04:58:26;;;;;;;14.73;5.03;;;23.40;56.20;;;;;;6209431;28;20449;-65
2023/10/14 05:01:27;;;;;;;9.68;4.45;;;23.40;56.30;;;;;;6215518;28;20026;-64
2023/10/14 05:04:30;;;;;;;11.90;3.72;;;23.30;56.40;;;;;;6214209;28;20124;-63
2023/10/14 05:07:32;;;;;;;9.68;4.45;;;23.30;56.50;;;;;;6215479;28;20030;-67
2023/10/14 05:10:33;;;;;;;8.63;4.30;;;23.30;56.50;;;;;;6196991;28;20184;-65
2023/10/14 05:13:34;;;;;;;8.05;4.50;;;23.30;56.50;;;;;;6215347;28;20036;-65
2023/10/14 05:17:04;;;;;;;12.52;4.63;;;23.30;56.50;;;;;;6215127;28;20022;-65
2023/10/14 05:20:16;;;;;;;12.48;4.68;;;23.30;56.40;;;;;;6214973;28;20117;-65
2023/10/14 05:23:19;;;;;;;11.10;4.88;;;23.30;56.20;;;;;;6214846;28;20697;-64
2023/10/14 05:26:27;;;;;;;10.90;4.53;;;23.30;56.10;;;;;;6214819;28;20026;-65
2023/10/14 05:29:29;;;;;;;13.73;4.72;;;23.30;56.00;;;;;;6214459;28;20115;-66
2023/10/14 05:32:31;;;;;;;14.15;5.03;;;23.30;56.00;;;;;;6215130;28;20566;-65
2023/10/14 05:35:31;;;;;;;14.10;5.22;;;23.30;56.00;;;;;;6213453;28;20080;-67
2023/10/14 05:38:32;;;;;;;9.27;4.35;;;23.30;55.90;;;;;;6214469;28;20042;-65
2023/10/14 05:41:33;;;;;;;10.93;4.40;;;23.30;56.00;;;;;;6214692;28;20037;-68
2023/10/14 05:44:34;;;;;;;6.75;4.80;;;23.30;55.80;;;;;;6214313;28;20124;-66
2023/10/14 05:47:36;;;;;;;15.60;4.60;;;23.20;55.40;;;;;;6214174;28;20112;-67
2023/10/14 05:50:37;;;;;;;10.77;4.60;;;23.20;54.90;;;;;;6213976;28;20041;-66
2023/10/14 05:53:38;;;;;;;9.25;4.38;;;23.20;54.60;;;;;;6208955;28;20459;-65
2023/10/14 05:56:42;;;;;;;11.48;4.55;;;23.10;54.30;;;;;;6190574;28;20046;-65
2023/10/14 05:59:43;;;;;;;9.75;3.70;;;23.10;54.10;;;;;;6192992;28;20685;-66
2023/10/14 06:02:44;;;;;;;7.78;4.13;;;23.10;53.90;;;;;;6214766;28;20063;-65
2023/10/14 06:05:45;;;;;;;8.90;4.13;;;23.00;53.70;;;;;;6213810;28;20040;-64
2023/10/14 06:08:46;;;;;;;7.57;4.00;;;23.00;53.70;;;;;;6213989;28;20113;-64
2023/10/14 06:11:47;;;;;;;8.75;4.07;;;23.00;53.50;;;;;;6213510;28;20033;-64
2023/10/14 06:14:48;;;;;;;11.80;3.83;;;22.90;53.30;;;;;;6214289;28;20034;-64
2023/10/14 06:17:54;;;;;;;9.77;3.25;;;22.80;53.30;;;;;;6212756;28;20121;-65
2023/10/14 06:20:59;;;;;;;4.85;3.17;;;22.70;52.80;;;;;;6214087;28;20045;-67
2023/10/14 06:24:00;;;;;;;5.43;3.00;;;22.50;52.30;;;;;;6218304;28;20145;-65
2023/10/14 06:27:08;;;;;;;9.48;3.38;;;22.40;52.20;;;;;;6218649;28;20030;-67
2023/10/14 06:30:18;;;;;;;6.70;3.28;;;22.30;52.10;;;;;;6218333;28;20784;-65
2023/10/14 06:33:26;;;;;;;5.85;3.20;;;22.20;52.30;;;;;;6218912;28;20048;-64
2023/10/14 06:36:27;;;;;;;5.40;3.42;;;22.10;52.70;;;;;;6217176;28;20080;-66
2023/10/14 06:39:28;;;;;;;12.93;4.28;;;22.00;53.10;;;;;;6205768;28;20486;-65
2023/10/14 06:42:30;;;;;;;5.72;3.28;;;22.00;53.60;;;;;;6193945;28;20034;-65
2023/10/14 06:45:34;;;;;;;8.65;3.67;;;21.90;54.00;;;;;;6192641;28;20042;-66
2023/10/14 06:48:38;;;;;;;10.15;3.78;;;21.90;54.30;;;;;;6196171;28;20030;-67
2023/10/14 06:51:42;;;;;;;9.30;3.28;;;21.80;54.50;;;;;;6217143;28;20062;-66
2023/10/14 06:54:43;;;;;;;5.88;3.15;;;21.70;54.70;;;;;;6218314;28;20115;-65
2023/10/14 06:57:47;;;;;;;11.73;3.85;;;21.70;54.70;;;;;;6218530;28;20034;-65
2023/10/14 07:00:49;;;;;;;9.20;3.67;;;21.70;55.10;;;;;;6204824;28;20038;-63
2023/10/14 07:03:52;;;;;;;12.27;3.83;;;21.60;55.40;;;;;;6193667;28;20105;-65
2023/10/14 07:06:52;;;;;;;12.15;4.30;;;21.60;55.50;;;;;;6193504;28;20046;-65
2023/10/14 07:09:54;;;;;;;5.30;3.15;;;21.60;55.50;;;;;;6192069;28;20121;-66
2023/10/14 07:13:00;;;;;;;6.60;3.20;;;21.50;55.30;;;;;;6215034;28;20076;-66
2023/10/14 07:16:06;;;;;;;9.30;3.88;;;21.50;55.30;;;;;;6217787;28;20033;-64
2023/10/14 07:19:07;;;;;;;15.07;3.63;;;21.50;55.30;;;;;;6216622;28;20037;-65
2023/10/14 07:22:08;;;;;;;5.38;2.95;;;21.50;55.20;;;;;;6218043;28;20026;-65
2023/10/14 07:25:10;;;;;;;4.93;3.10;;;22.00;55.50;;;;;;6217882;28;20030;-65
2023/10/14 07:28:13;;;;;;;6.85;3.72;;;21.40;55.30;;;;;;6217193;28;20034;-66
2023/10/14 07:31:14;;;;;;;8.10;2.92;;;21.40;55.30;;;;;;6217849;28;20045;-65
2023/10/14 07:34:16;;;;;;;10.93;3.80;;;21.30;55.30;;;;;;6216255;28;20034;-64
2023/10/14 07:37:17;;;;;;;10.73;3.90;;;21.30;55.30;;;;;;6215867;28;20136;-67
2023/10/14 07:40:23;;;;;;;6.30;3.53;;;21.30;55.40;;;;;;6214962;28;20253;-65
2023/10/14 07:43:26;;;;;;;10.52;3.47;;;21.20;55.20;;;;;;6217144;28;20034;-65
2023/10/14 07:46:27;;;;;;;11.13;3.70;;;21.20;55.30;;;;;;6199068;28;20076;-65
2023/10/14 07:49:28;;;;;;;10.75;3.75;;;21.20;55.30;;;;;;6214766;28;20529;-64
2023/10/14 07:52:31;;;;;;;9.30;3.90;;;21.20;55.30;;;;;;6215363;28;20049;-65
2023/10/14 07:55:35;;;;;;;13.43;4.20;;;21.30;55.30;;;;;;6216661;28;20078;-65
2023/10/14 07:58:37;;;;;;;13.10;3.67;;;21.30;55.20;;;;;;6216218;28;20093;-64
2023/10/14 08:01:38;;;;;;;7.20;3.75;;;21.40;55.00;;;;;;6214544;28;20129;-67
2023/10/14 08:04:45;;;;;;;9.48;3.70;;;21.50;54.60;;;;;;6214565;28;20470;-64
2023/10/14 08:07:47;;;;;;;8.48;3.50;;;21.60;54.40;;;;;;6214433;28;20113;-65
2023/10/14 08:10:50;;;;;;;9.90;4.15;;;21.70;54.30;;;;;;6215038;28;20046;-66
2023/10/14 08:13:51;;;;;;;6.90;3.50;;;21.80;54.10;;;;;;6214342;28;20073;-66
2023/10/14 08:16:52;;;;;;;10.00;3.65;;;21.90;54.00;;;;;;6216061;28;20111;-66
2023/10/14 08:19:53;;;;;;;9.60;4.03;;;21.80;53.70;;;;;;6215848;28;20110;-65
2023/10/14 08:22:54;;;;;;;5.75;3.25;;;22.10;53.60;;;;;;6215859;28;20423;-66
2023/10/14 08:25:57;;;;;;;7.65;3.28;;;22.10;53.60;;;;;;6214785;28;20042;-66
2023/10/14 08:29:00;;;;;;;6.85;3.35;;;22.20;53.60;;;;;;6215821;28;20038;-66
2023/10/14 08:32:00;;;;;;;12.20;3.92;;;22.30;53.60;;;;;;6204167;28;20402;-67
2023/10/14 08:35:03;;;;;;;15.35;4.40;;;22.30;53.50;;;;;;6189736;28;20042;-67
2023/10/14 08:38:10;;;;;;;16.60;5.45;;;22.30;53.50;;;;;;6190786;28;20498;-67
2023/10/14 08:41:14;;;;;;;13.48;5.20;;;22.40;53.50;;;;;;6191199;28;20258;-65
2023/10/14 08:44:22;;;;;;;13.52;6.60;;;22.30;53.70;;;;;;6210932;28;20343;-65
2023/10/14 08:47:23;;;;;;;23.63;8.60;;;22.30;53.40;;;;;;6215471;28;20041;-65
2023/10/14 08:50:29;;;;;;;15.00;6.72;;;22.30;53.90;;;;;;6215084;28;20037;-65
2023/10/14 08:53:33;;;;;;;14.40;7.70;;;22.30;54.00;;;;;;6214296;28;20034;-65
2023/10/14 08:56:34;;;;;;;11.25;5.32;;;22.30;54.20;;;;;;6215251;28;20036;-65
2023/10/14 08:59:35;;;;;;;12.63;4.88;;;22.40;54.50;;;;;;6213255;28;20065;-67
2023/10/14 09:02:36;;;;;;;13.30;4.57;;;22.40;54.60;;;;;;6189105;28;20042;-66
2023/10/14 09:05:41;;;;;;;15.85;4.85;;;22.50;54.70;;;;;;6190695;28;20038;-65
2023/10/14 09:08:44;;;;;;;10.68;5.50;;;22.50;54.80;;;;;;6190323;28;20034;-66
2023/10/14 09:11:45;;;;;;;11.23;5.40;;;22.50;54.80;;;;;;6202568;28;20228;-66
2023/10/14 09:14:47;;;;;;;14.70;5.63;;;22.60;55.00;;;;;;6214510;28;20147;-65
2023/10/14 09:17:48;;;;;;;9.38;5.00;;;22.60;55.10;;;;;;6213704;28;20448;-66
2023/10/14 09:20:56;;;;;;;12.85;4.97;;;22.70;55.30;;;;;;6214640;28;20030;-67
2023/10/14 09:24:07;;;;;;;8.50;3.83;;;22.80;55.10;;;;;;6214741;28;20030;-64
2023/10/14 09:27:11;;;;;;;11.07;5.50;;;22.80;55.00;;;;;;6214990;28;20133;-66
2023/10/14 09:30:17;;;;;;;14.43;5.60;;;22.90;55.00;;;;;;6214291;28;20033;-65
2023/10/14 09:33:27;;;;;;;9.38;5.05;;;23.00;55.00;;;;;;6214471;28;20026;-67
2023/10/14 09:36:34;;;;;;;21.20;5.68;;;23.00;54.90;;;;;;6214394;28;20028;-67
2023/10/14 09:39:38;;;;;;;8.75;5.03;;;23.00;54.90;;;;;;6214232;28;20109;-66
2023/10/14 09:42:40;;;;;;;13.60;5.43;;;23.00;55.00;;;;;;6214480;28;20034;-66
2023/10/14 09:45:44;;;;;;;11.20;5.30;;;23.00;55.30;;;;;;6212711;28;20042;-66
2023/10/14 09:48:46;;;;;;;15.77;5.93;;;23.00;55.60;;;;;;6213885;28;20116;-65
2023/10/14 09:51:48;;;;;;;15.48;5.22;;;23.00;55.80;;;;;;6213079;28;20382;-66
2023/10/14 09:54:51;;;;;;;12.90;5.47;;;23.00;55.90;;;;;;6213721;28;20057;-65
2023/10/14 09:57:53;;;;;;;11.63;5.40;;;23.00;56.00;;;;;;6217087;28;20396;-66
2023/10/14 10:00:54;;;;;;;11.98;5.97;;;23.00;55.90;;;;;;6206466;28;20045;-66
2023/10/14 10:04:02;;;;;;;9.52;5.18;;;23.00;56.00;;;;;;6194961;28;20092;-65
2023/10/14 10:07:37;;;;;;;11.82;4.80;;;23.00;56.00;;;;;;6193940;28;20070;-67
2023/10/14 10:10:40;;;;;;;12.35;5.65;;;23.10;56.10;;;;;;6197197;28;20040;-66
2023/10/14 10:13:41;;;;;;;10.70;5.25;;;23.10;56.00;;;;;;6217448;28;20132;-65
2023/10/14 10:16:42;;;;;;;10.25;5.43;;;23.10;56.10;;;;;;6219199;28;20034;-66
2023/10/14 10:20:08;;;;;;;15.10;6.05;;;23.20;56.20;;;;;;6218926;28;20051;-65
2023/10/14 10:23:10;;;;;;;11.25;4.95;;;23.10;56.40;;;;;;6218771;28;20120;-65
2023/10/14 10:26:12;;;;;;;14.05;5.07;;;23.10;56.30;;;;;;6194487;28;20165;-64
2023/10/14 10:29:22;;;;;;;22.27;9.10;;;23.10;56.40;;;;;;6194311;28;20034;-64
2023/10/14 10:32:29;;;;;;;16.83;6.40;;;23.10;56.40;;;;;;6193208;28;20045;-65
2023/10/14 10:35:30;;;;;;;12.55;6.00;;;23.10;56.30;;;;;;6203062;28;20026;-67
2023/10/14 10:38:36;;;;;;;13.60;5.18;;;23.00;56.20;;;;;;6217018;28;20382;-66
2023/10/14 10:41:37;;;;;;;9.52;5.43;;;22.90;56.20;;;;;;6218286;28;20461;-65
2023/10/14 10:44:40;;;;;;;12.23;5.32;;;22.90;56.20;;;;;;6218160;28;20045;-64
2023/10/14 10:47:45;;;;;;;11.40;5.38;;;22.90;56.10;;;;;;6218610;28;20053;-67
2023/10/14 10:50:52;;;;;;;10.70;4.88;;;22.90;56.10;;;;;;6217970;28;20030;-66
2023/10/14 10:53:55;;;;;;;14.95;6.40;;;22.90;56.10;;;;;;6218345;28;20025;-65
2023/10/14 10:57:00;;;;;;;11.45;4.93;;;22.90;56.10;;;;;;6216372;28;20060;-66
2023/10/14 11:00:09;;;;;;;13.38;5.53;;;23.00;56.20;;;;;;6216348;28;20041;-67
2023/10/14 11:03:16;;;;;;;16.63;5.63;;;23.10;56.20;;;;;;6218059;28;20049;-67
2023/10/14 11:06:19;;;;;;;13.20;5.97;;;23.10;56.20;;;;;;6217918;28;20422;-65
2023/10/14 11:09:20;;;;;;;18.13;7.45;;;23.10;56.00;;;;;;6217257;28;20117;-66
2023/10/14 11:12:21;;;;;;;25.45;10.27;;;23.20;55.90;;;;;;6217413;28;20443;-67
2023/10/14 11:15:25;;;;;;;14.57;6.13;;;23.20;55.70;;;;;;6216058;28;20070;-65
2023/10/14 11:18:27;;;;;;;9.07;4.95;;;23.20;55.60;;;;;;6216184;28;20037;-65
2023/10/14 11:21:29;;;;;;;8.98;5.13;;;23.40;55.50;;;;;;6199699;28;20049;-65
2023/10/14 11:24:31;;;;;;;8.07;4.30;;;23.40;55.40;;;;;;6194057;28;20431;-66
2023/10/14 11:27:32;;;;;;;13.05;5.20;;;23.40;55.20;;;;;;6195143;28;20081;-65
2023/10/14 11:30:33;;;;;;;11.00;5.03;;;23.50;55.00;;;;;;6193562;28;20065;-66
2023/10/14 11:33:35;;;;;;;11.75;5.20;;;23.50;54.80;;;;;;6217442;28;20034;-65
2023/10/14 11:36:41;;;;;;;11.20;5.57;;;23.60;54.70;;;;;;6217467;28;20057;-68
2023/10/14 11:39:43;;;;;;;9.45;5.28;;;23.80;54.60;;;;;;6217009;28;20037;-66
2023/10/14 11:42:44;;;;;;;19.83;6.25;;;24.00;54.30;;;;;;6215751;28;20438;-66
2023/10/14 11:45:45;;;;;;;7.10;4.90;;;24.20;53.90;;;;;;6216934;28;20128;-65
2023/10/14 11:48:47;;;;;;;16.02;6.10;;;24.40;53.60;;;;;;6215401;28;20123;-67
2023/10/14 11:51:48;;;;;;;10.68;5.13;;;24.60;53.30;;;;;;6217100;28;20149;-67
2023/10/14 11:54:52;;;;;;;14.05;5.22;;;24.80;52.90;;;;;;6217080;28;20324;-65
2023/10/14 11:57:53;;;;;;;13.38;6.00;;;25.00;52.50;;;;;;6216656;28;20053;-65
2023/10/14 12:00:55;;;;;;;24.90;9.35;;;25.10;52.20;;;;;;6202517;28;20887;-67
2023/10/14 12:03:56;;;;;;;18.38;6.53;;;25.30;51.90;;;;;;6192277;28;20529;-66
2023/10/14 12:06:57;;;;;;;14.02;6.30;;;25.30;51.60;;;;;;6190626;28;20042;-66
2023/10/14 12:10:04;;;;;;;18.20;7.00;;;25.30;51.30;;;;;;6190189;28;20046;-66
2023/10/14 12:13:05;;;;;;;11.90;5.65;;;25.20;51.20;;;;;;6192026;28;20406;-65
2023/10/14 12:16:07;;;;;;;19.25;6.63;;;25.10;51.50;;;;;;6196169;28;20410;-65
2023/10/14 12:19:11;;;;;;;17.30;7.78;;;25.00;51.50;;;;;;6215780;28;20570;-65
2023/10/14 12:22:12;;;;;;;9.27;5.63;;;24.90;51.60;;;;;;6214737;28;20765;-68
2023/10/14 12:25:17;;;;;;;10.32;5.05;;;24.90;51.60;;;;;;6214592;28;20030;-65
2023/10/14 12:28:30;;;;;;;13.25;5.57;;;25.00;51.60;;;;;;6215678;28;20057;-66
2023/10/14 12:31:31;;;;;;;9.52;4.60;;;25.00;51.50;;;;;;6216139;28;20111;-66
2023/10/14 12:34:33;;;;;;;10.30;5.32;;;25.10;51.40;;;;;;6198265;28;20499;-66
2023/10/14 12:37:34;;;;;;;16.98;6.50;;;25.10;51.30;;;;;;6214254;28;20038;-66
2023/10/14 12:40:36;;;;;;;14.57;7.32;;;25.10;51.20;;;;;;6214428;28;20040;-67
2023/10/14 12:43:39;;;;;;;16.63;5.85;;;25.10;51.10;;;;;;6214022;28;20124;-66
2023/10/14 12:46:43;;;;;;;17.00;6.20;;;25.10;51.20;;;;;;6214156;28;20187;-65
2023/10/14 12:49:46;;;;;;;12.38;5.25;;;25.10;51.30;;;;;;6213519;28;20732;-65
2023/10/14 12:53:00;;;;;;;10.95;4.95;;;25.00;51.40;;;;;;6214023;28;20018;-66
2023/10/14 12:56:01;;;;;;;11.55;5.70;;;25.00;51.60;;;;;;6216130;28;20038;-66
2023/10/14 12:59:12;;;;;;;15.13;5.47;;;24.90;51.80;;;;;;6216571;28;20026;-68
2023/10/14 13:02:17;;;;;;;12.20;5.38;;;24.90;51.80;;;;;;6191544;28;20442;-67
2023/10/14 13:05:20;;;;;;;13.02;6.05;;;24.80;52.00;;;;;;6190845;28;20098;-66
2023/10/14 13:08:21;;;;;;;12.02;5.35;;;24.90;52.20;;;;;;6189025;28;20077;-66
2023/10/14 13:11:22;;;;;;;8.60;4.60;;;24.90;52.00;;;;;;6199618;28;20108;-64
2023/10/14 13:14:26;;;;;;;11.65;5.43;;;25.00;51.80;;;;;;6215236;28;20030;-65
2023/10/14 13:17:26;;;;;;;9.02;4.45;;;25.10;51.60;;;;;;6215274;28;20398;-65
2023/10/14 13:20:35;;;;;;;11.25;4.40;;;25.20;51.30;;;;;;6214460;28;20037;-67
2023/10/14 13:23:36;;;;;;;14.35;5.15;;;25.30;51.00;;;;;;6213473;28;20096;-65
2023/10/14 13:26:38;;;;;;;11.85;5.07;;;25.40;50.70;;;;;;6214899;28;20030;-65
2023/10/14 13:29:41;;;;;;;16.70;6.30;;;25.50;50.50;;;;;;6214723;28;20081;-65
2023/10/14 13:32:42;;;;;;;9.32;4.50;;;25.70;50.30;;;;;;6214047;28;20026;-66
2023/10/14 13:35:45;;;;;;;14.55;5.25;;;25.70;49.80;;;;;;6213014;28;20030;-66
2023/10/14 13:38:47;;;;;;;15.20;5.35;;;25.60;49.90;;;;;;6212651;28;20030;-64
2023/10/14 13:41:48;;;;;;;13.13;5.50;;;25.40;50.10;;;;;;6216560;28;20038;-65
2023/10/14 13:44:49;;;;;;;14.00;5.80;;;25.30;50.30;;;;;;6214456;28;20054;-66
2023/10/14 13:47:50;;;;;;;12.60;6.13;;;25.30;50.40;;;;;;6214513;28;20025;-66
2023/10/14 13:50:54;;;;;;;9.93;4.90;;;25.10;50.40;;;;;;6214386;28;20458;-66
2023/10/14 13:53:55;;;;;;;17.35;5.40;;;25.10;50.70;;;;;;6213291;28;20470;-65
2023/10/14 13:56:56;;;;;;;9.27;5.32;;;25.00;50.70;;;;;;6214926;28;20109;-68
2023/10/14 13:59:58;;;;;;;10.45;5.13;;;24.90;50.80;;;;;;6214788;28;20053;-65
2023/10/14 14:02:58;;;;;;;10.60;4.60;;;25.20;51.30;;;;;;6214852;28;20040;-67
2023/10/14 14:06:06;;;;;;;14.85;5.75;;;24.80;51.40;;;;;;6214803;28;20041;-66
2023/10/14 14:09:08;;;;;;;12.77;5.73;;;24.80;51.50;;;;;;6214220;28;20037;-65
2023/10/14 14:12:09;;;;;;;13.10;6.43;;;24.70;51.40;;;;;;6214020;28;20783;-66
2023/10/14 14:15:10;;;;;;;10.48;4.43;;;24.70;51.60;;;;;;6214220;28;20018;-66
2023/10/14 14:18:11;;;;;;;13.32;4.85;;;24.80;51.60;;;;;;6213630;28;20110;-66
2023/10/14 14:21:12;;;;;;;9.63;4.68;;;25.00;51.50;;;;;;6210409;28;20390;-67
2023/10/14 14:24:14;;;;;;;20.60;5.15;;;25.10;51.20;;;;;;6213787;28;20037;-66
2023/10/14 14:27:15;;;;;;;9.32;4.50;;;25.30;51.00;;;;;;6213668;28;20200;-67
2023/10/14 14:30:16;;;;;;;9.88;4.07;;;25.40;50.70;;;;;;6213307;28;20451;-65
2023/10/14 14:33:18;;;;;;;8.48;4.15;;;25.40;50.50;;;;;;6213272;28;20040;-67
2023/10/14 14:36:20;;;;;;;11.85;4.13;;;25.50;50.50;;;;;;6212301;28;20379;-66
2023/10/14 14:39:21;;;;;;;10.23;5.05;;;25.40;50.20;;;;;;6213879;28;20394;-66
2023/10/14 14:42:21;;;;;;;12.60;4.63;;;25.50;50.20;;;;;;6213719;28;20121;-66
2023/10/14 14:45:25;;;;;;;10.43;4.35;;;25.50;50.10;;;;;;6217971;28;20032;-66
2023/10/14 14:48:25;;;;;;;7.57;3.97;;;25.60;50.00;;;;;;6218580;28;20026;-66
2023/10/14 14:51:29;;;;;;;19.70;4.32;;;25.70;49.80;;;;;;6216157;28;20451;-67
2023/10/14 14:54:32;;;;;;;9.95;4.97;;;25.80;49.80;;;;;;6218145;28;20038;-66
2023/10/14 14:57:38;;;;;;;13.20;4.45;;;25.80;49.70;;;;;;6218429;28;20026;-66
2023/10/14 15:00:42;;;;;;;11.95;3.75;;;25.70;49.60;;;;;;6217592;28;20038;-67
2023/10/14 15:03:45;;;;;;;10.45;4.40;;;26.30;49.80;;;;;;6218022;28;20036;-65
2023/10/14 15:06:46;;;;;;;8.02;4.43;;;25.90;49.50;;;;;;6216638;28;20036;-66
2023/10/14 15:09:47;;;;;;;13.40;4.75;;;25.80;49.40;;;;;;6217235;28;20487;-66
2023/10/14 15:12:52;;;;;;;7.53;4.20;;;25.70;49.50;;;;;;6216256;28;20136;-65
2023/10/14 15:15:53;;;;;;;8.98;4.65;;;25.70;49.50;;;;;;6217787;28;20424;-67
2023/10/14 15:18:54;;;;;;;13.27;5.10;;;25.60;49.60;;;;;;6217576;28;20152;-66
2023/10/14 15:21:55;;;;;;;10.55;4.93;;;25.60;49.80;;;;;;6217786;28;20087;-66
2023/10/14 15:24:56;;;;;;;11.00;4.80;;;25.60;49.80;;;;;;6215918;28;20065;-65
2023/10/14 15:27:57;;;;;;;10.05;4.82;;;25.50;49.80;;;;;;6217618;28;20045;-66
2023/10/14 15:31:00;;;;;;;8.43;4.05;;;25.50;49.90;;;;;;6217265;28;20026;-67
2023/10/14 15:34:01;;;;;;;11.65;4.95;;;25.40;50.00;;;;;;6217431;28;20113;-66
2023/10/14 15:37:02;;;;;;;10.98;4.68;;;25.30;50.00;;;;;;6217531;28;20153;-66
2023/10/14 15:40:08;;;;;;;9.98;4.80;;;25.20;50.10;;;;;;6218292;28;20040;-66
2023/10/14 15:43:09;;;;;;;8.15;4.45;;;25.10;50.20;;;;;;6219465;28;20528;-66
2023/10/14 15:46:10;;;;;;;10.10;4.63;;;25.10;50.40;;;;;;6218821;28;20116;-67
2023/10/14 15:49:11;;;;;;;10.63;4.78;;;25.00;50.60;;;;;;6215818;28;20453;-66
2023/10/14 15:52:11;;;;;;;15.70;5.13;;;24.90;50.70;;;;;;6217145;28;20091;-66
2023/10/14 15:55:16;;;;;;;5.90;3.25;;;24.90;51.00;;;;;;6214738;28;20049;-66